Hauptseite
Satellitenwetter 10-Tage PrognosenKlimaSeewetter Wirbelstürme Blitz FlughäfenFAQ Newsletter Über uns
Wetter : Europa Afrika Nordamerika Südamerika Asien Australien-Ozeanien Andere
Sprachen Kontakt

Newquay Cornwall, England

Newquay Cornwall Airport

Breite: 50-26N, Länge: 005-00W, Höhe: 119 m


METAR: EGHQ 020750Z 28006KT 9999 -RA SCT015 14/13 Q1017
TAF: EGHQ 020557Z 0206/0215 30005KT 9999 FEW040 PROB30 TEMPO 0209/0214 6000 SHRA TS BKN014CB

Zeit: 09:06 (08:06 UTC)

Beobachtung

Neuester Wetterbericht von vor 16 Minuten, um 07:50 UTC
Wind 6 kt aus West
Temperatur 14°C
Luftfeuchtigkeit 94%
Luftdruck 1017 hPa
Sichtweite 10 km oder mehr
Aufgelockert bewölkt in der Höhe von 1500 ft
Leichtregen

Maßeinheiten ändern

Prognose

Neuester Wetterbericht von vor 2 Stunden und 9 Minuten, um 05:57 UTC
Gültige Prognose vom 02 um 06 UTC bis 02 um 15 UTC
Wind 5 kt aus West/Nordwest
Sichtweite 10 km oder mehr
Leicht bewölkt in der Höhe von 4000 ft
Wahrscheinlichkeit 30% :
Zeitweise
vom 02 um 09 UTC bis 02 um 14 UTC
Sichtweite: 6000 m
Durchbrochene Bewölkung in der Höhe von 1400 ft, Kumulonimbus.
Regenschauer, Gewitter
Die Angaben auf diesen Webseiten unterliegen einer Erklärung über den Haftungsausschluss
Wetter : Europa Afrika Nordamerika Südamerika Asien Australien-Ozeanien Andere
Satellitenwetter 10-Tage PrognosenKlimaSeewetter Wirbelstürme Blitz FlughäfenFAQ Sprachen Kontakt Newsletter Über uns